Time;durP1;ratioP1;P1;durP2;ratioP2;P2;SDS_P1;SDS_P2;PMS_P1;PMS_P2;Temp;Humidity;BMP_temperature;BMP_pressure;BME280_temperature;BME280_humidity;BME280_pressure;Samples;Min_cycle;Max_cycle;Signal;HPM_P1;HPM_P2
2022/10/30 00:00:38;;;;;;;28.70;11.82;;;14.80;99.90;;;;;;5030538;28;20040;-43
2022/10/30 00:03:06;;;;;;;32.40;12.30;;;14.80;99.90;;;;;;5045665;28;20061;-42
2022/10/30 00:05:33;;;;;;;31.23;12.15;;;14.80;99.90;;;;;;5026390;28;20455;-41
2022/10/30 00:08:00;;;;;;;21.92;11.13;;;14.80;99.90;;;;;;5024771;28;20144;-41
2022/10/30 00:10:27;;;;;;;27.55;12.18;;;14.80;99.90;;;;;;5053262;28;20096;-43
2022/10/30 00:12:53;;;;;;;30.50;12.23;;;14.80;99.90;;;;;;5051131;28;20424;-42
2022/10/30 00:15:23;;;;;;;28.40;11.85;;;14.80;99.90;;;;;;5054035;28;20088;-43
2022/10/30 00:17:50;;;;;;;24.13;11.32;;;14.80;99.90;;;;;;5053438;28;20109;-42
2022/10/30 00:20:18;;;;;;;31.65;12.00;;;14.80;99.90;;;;;;5032799;28;20092;-42
2022/10/30 00:22:45;;;;;;;28.02;12.02;;;14.80;99.90;;;;;;5054072;28;20476;-43
2022/10/30 00:25:11;;;;;;;26.67;11.75;;;14.70;99.90;;;;;;5037492;28;20139;-46
2022/10/30 00:27:38;;;;;;;26.33;12.50;;;14.70;99.90;;;;;;5035978;28;20124;-42
2022/10/30 00:30:06;;;;;;;28.20;12.07;;;14.70;99.90;;;;;;5053788;28;20053;-42
2022/10/30 00:32:33;;;;;;;30.30;12.07;;;14.60;99.90;;;;;;5054965;28;20052;-43
2022/10/30 00:35:00;;;;;;;30.77;12.18;;;14.60;99.90;;;;;;5054019;28;20124;-42
2022/10/30 00:37:28;;;;;;;27.02;11.52;;;14.60;99.90;;;;;;5052876;28;20045;-42
2022/10/30 00:39:54;;;;;;;27.83;11.15;;;14.60;99.90;;;;;;5036898;28;20509;-43
2022/10/30 00:42:21;;;;;;;25.75;11.95;;;14.60;99.90;;;;;;5036482;28;20092;-44
2022/10/30 00:44:49;;;;;;;29.70;11.45;;;14.50;99.90;;;;;;5035085;28;20077;-43
2022/10/30 00:47:18;;;;;;;27.27;11.07;;;14.50;99.90;;;;;;5031489;28;20071;-42
2022/10/30 00:49:50;;;;;;;27.60;10.48;;;14.50;99.90;;;;;;5045794;28;20125;-43
2022/10/30 00:52:17;;;;;;;28.27;10.30;;;14.50;99.90;;;;;;5049293;28;20167;-43
2022/10/30 00:54:45;;;;;;;24.42;10.43;;;14.40;99.90;;;;;;5049495;28;20130;-41
2022/10/30 00:57:12;;;;;;;29.88;10.95;;;14.40;99.90;;;;;;5017902;28;20060;-41
2022/10/30 00:59:39;;;;;;;26.70;11.45;;;14.40;99.90;;;;;;5022308;28;20045;-42
2022/10/30 01:02:05;;;;;;;26.30;10.65;;;14.50;99.90;;;;;;5041939;28;20103;-42
2022/10/30 01:04:33;;;;;;;24.60;11.18;;;14.50;99.90;;;;;;5052593;28;20512;-42
2022/10/30 01:07:00;;;;;;;28.25;11.27;;;14.40;99.90;;;;;;5024276;28;20049;-42
2022/10/30 01:09:27;;;;;;;32.50;11.30;;;14.50;99.90;;;;;;5049615;28;20095;-42
2022/10/30 01:11:57;;;;;;;23.90;10.93;;;14.50;99.90;;;;;;5031740;28;20136;-41
2022/10/30 01:14:23;;;;;;;30.15;11.48;;;14.50;99.90;;;;;;5048958;28;20060;-43
2022/10/30 01:17:01;;;;;;;29.40;11.32;;;14.50;99.90;;;;;;5048764;28;20045;-42
2022/10/30 01:19:31;;;;;;;26.20;11.65;;;14.40;99.90;;;;;;5029948;28;20092;-42
2022/10/30 01:22:17;;;;;;;31.45;11.43;;;14.40;99.90;;;;;;5030272;28;20465;-45
2022/10/30 01:24:49;;;;;;;20.92;10.52;;;14.40;99.90;;;;;;5048943;28;20080;-43
2022/10/30 01:27:26;;;;;;;28.08;12.40;;;14.40;99.90;;;;;;5047702;28;20462;-43
2022/10/30 01:29:56;;;;;;;27.17;11.52;;;14.40;99.90;;;;;;5047085;28;20132;-41
2022/10/30 01:32:33;;;;;;;26.25;11.73;;;14.40;99.90;;;;;;5046336;28;20053;-42
2022/10/30 01:35:02;;;;;;;28.45;11.10;;;14.40;99.90;;;;;;5047683;28;20132;-41
2022/10/30 01:37:32;;;;;;;30.67;12.00;;;14.30;99.90;;;;;;5018330;28;20049;-44
2022/10/30 01:40:04;;;;;;;26.85;11.55;;;14.30;99.90;;;;;;5030835;28;20127;-42
2022/10/30 01:42:46;;;;;;;25.95;11.52;;;14.30;99.90;;;;;;5050739;28;20088;-42
2022/10/30 01:45:15;;;;;;;26.95;11.63;;;14.30;99.90;;;;;;5045993;28;20120;-42
2022/10/30 01:47:46;;;;;;;28.77;12.07;;;14.30;99.90;;;;;;5047891;28;20144;-42
2022/10/30 01:50:17;;;;;;;28.30;11.45;;;14.20;99.90;;;;;;5031018;28;20148;-42
2022/10/30 01:52:49;;;;;;;28.42;11.45;;;14.20;99.90;;;;;;5027995;28;20569;-43
2022/10/30 01:55:23;;;;;;;25.90;11.60;;;14.20;99.90;;;;;;5049281;28;20144;-42
2022/10/30 01:57:54;;;;;;;28.55;11.50;;;14.10;99.90;;;;;;5043136;28;20041;-42
2022/10/30 02:00:21;;;;;;;27.73;12.40;;;14.10;99.90;;;;;;5020046;28;20068;-43
2022/10/30 02:02:48;;;;;;;27.50;12.35;;;14.10;99.90;;;;;;5046372;28;20047;-41
2022/10/30 02:05:19;;;;;;;27.17;11.82;;;14.10;99.90;;;;;;5030129;28;20136;-42
2022/10/30 02:07:46;;;;;;;;;;;14.10;99.90;;;;;;5031076;28;20463;-43
2022/10/30 02:10:13;;;;;;;28.25;12.00;;;14.10;99.90;;;;;;5030283;28;19920;-43
2022/10/30 02:12:39;;;;;;;34.88;12.88;;;14.10;99.90;;;;;;5029717;28;20057;-44
2022/10/30 02:15:09;;;;;;;29.35;12.43;;;14.10;99.90;;;;;;5030727;28;20772;-44
2022/10/30 02:17:36;;;;;;;31.48;12.77;;;14.10;99.90;;;;;;5047801;28;20132;-43
2022/10/30 02:20:03;;;;;;;28.17;11.90;;;14.00;99.90;;;;;;5028447;28;20041;-44
2022/10/30 02:22:31;;;;;;;25.75;12.32;;;14.10;99.90;;;;;;5018444;28;20107;-44
2022/10/30 02:24:58;;;;;;;27.67;11.95;;;14.10;99.90;;;;;;5027968;28;20052;-43
2022/10/30 02:27:30;;;;;;;29.38;12.23;;;14.00;99.90;;;;;;5049100;28;20080;-43
2022/10/30 02:29:56;;;;;;;;;;;14.00;99.90;;;;;;5047481;28;20556;-43
2022/10/30 02:32:24;;;;;;;31.90;12.63;;;14.00;99.90;;;;;;5046990;28;19979;-41
2022/10/30 02:34:51;;;;;;;30.35;12.50;;;13.90;99.90;;;;;;5045633;28;20045;-42
2022/10/30 02:37:18;;;;;;;26.65;12.55;;;13.90;99.90;;;;;;5047577;28;20048;-43
2022/10/30 02:39:46;;;;;;;26.85;12.30;;;13.90;99.90;;;;;;5029076;28;20076;-45
2022/10/30 02:42:13;;;;;;;35.60;12.52;;;13.90;99.90;;;;;;5028428;28;20149;-42
2022/10/30 02:44:39;;;;;;;27.30;12.02;;;13.90;99.90;;;;;;5045804;28;20139;-43
2022/10/30 02:47:06;;;;;;;34.58;12.55;;;13.90;99.90;;;;;;5045145;28;20074;-43
2022/10/30 02:49:33;;;;;;;29.95;12.10;;;13.80;99.90;;;;;;5040992;28;20159;-42
2022/10/30 02:52:00;;;;;;;26.42;12.77;;;13.80;99.90;;;;;;5046298;28;20152;-42
2022/10/30 02:54:26;;;;;;;22.98;12.15;;;13.90;99.90;;;;;;5043567;28;20568;-44
2022/10/30 02:56:54;;;;;;;22.10;11.77;;;13.80;99.90;;;;;;5047032;28;20136;-45
2022/10/30 02:59:21;;;;;;;26.90;11.20;;;13.70;99.90;;;;;;5028866;28;20550;-43
2022/10/30 03:01:48;;;;;;;21.67;11.77;;;13.70;99.90;;;;;;5045488;28;20128;-43
2022/10/30 03:04:15;;;;;;;25.88;11.75;;;13.70;99.90;;;;;;5042929;28;20115;-45
2022/10/30 03:06:41;;;;;;;29.92;12.13;;;13.70;99.90;;;;;;5022096;28;20563;-43
2022/10/30 03:09:08;;;;;;;27.55;13.02;;;13.70;99.90;;;;;;5048572;28;20465;-44
2022/10/30 03:11:35;;;;;;;24.58;11.82;;;13.60;99.90;;;;;;5026901;28;20544;-43
2022/10/30 03:14:03;;;;;;;28.80;12.27;;;13.60;99.90;;;;;;5045783;28;20081;-43
2022/10/30 03:16:30;;;;;;;31.92;12.65;;;13.60;99.90;;;;;;5047679;28;20088;-46
2022/10/30 03:18:57;;;;;;;29.45;11.90;;;13.60;99.90;;;;;;5028635;28;20091;-43
2022/10/30 03:21:25;;;;;;;24.80;11.98;;;13.60;99.90;;;;;;5027824;28;20457;-44
2022/10/30 03:23:52;;;;;;;28.73;11.20;;;13.50;99.90;;;;;;5046109;28;20120;-44
2022/10/30 03:26:19;;;;;;;27.58;12.05;;;13.50;99.90;;;;;;5020179;28;20150;-43
2022/10/30 03:28:46;;;;;;;27.17;12.40;;;13.50;99.90;;;;;;5046487;28;20477;-43
2022/10/30 03:31:15;;;;;;;28.52;12.48;;;13.50;99.90;;;;;;5044945;28;20132;-44
2022/10/30 03:33:42;;;;;;;26.90;11.68;;;13.50;99.90;;;;;;5028517;28;20485;-43
2022/10/30 03:36:09;;;;;;;25.00;12.40;;;13.50;99.90;;;;;;5026329;28;20084;-43
2022/10/30 03:38:36;;;;;;;26.35;12.38;;;13.50;99.90;;;;;;5045908;28;21158;-43
2022/10/30 03:41:03;;;;;;;29.25;13.05;;;13.50;99.90;;;;;;5028377;28;20051;-44
2022/10/30 03:43:30;;;;;;;27.15;12.43;;;13.40;99.90;;;;;;5029514;28;20123;-44
2022/10/30 03:45:57;;;;;;;27.70;12.02;;;13.50;99.90;;;;;;5049094;28;20142;-43
2022/10/30 03:48:27;;;;;;;27.88;12.90;;;13.50;99.90;;;;;;5033706;28;20077;-43
2022/10/30 03:50:54;;;;;;;26.10;13.15;;;13.50;99.90;;;;;;5047998;28;20571;-43
2022/10/30 03:53:22;;;;;;;36.85;14.70;;;13.40;99.90;;;;;;5049274;28;20074;-45
2022/10/30 03:55:49;;;;;;;29.65;12.18;;;13.40;99.90;;;;;;5035055;28;20048;-43
2022/10/30 03:58:16;;;;;;;26.67;11.55;;;13.40;99.90;;;;;;5031234;28;20128;-44
2022/10/30 04:00:43;;;;;;;26.48;12.52;;;13.40;99.90;;;;;;5049838;28;20150;-42
2022/10/30 04:03:09;;;;;;;24.52;12.00;;;13.40;99.90;;;;;;5050738;28;20136;-44
2022/10/30 04:05:38;;;;;;;27.95;12.75;;;13.30;99.90;;;;;;5049589;28;20102;-44
2022/10/30 04:08:06;;;;;;;24.95;11.98;;;13.30;99.90;;;;;;5028257;28;20110;-43
2022/10/30 04:10:33;;;;;;;20.70;11.65;;;13.30;99.90;;;;;;5030172;28;20053;-44
2022/10/30 04:13:00;;;;;;;26.52;13.32;;;13.30;99.90;;;;;;5017837;28;20049;-44
2022/10/30 04:15:26;;;;;;;29.75;12.43;;;13.30;99.90;;;;;;5048282;28;20664;-46
2022/10/30 04:17:53;;;;;;;32.58;14.55;;;13.20;99.90;;;;;;5051596;28;20059;-44
2022/10/30 04:20:21;;;;;;;27.52;13.38;;;13.20;99.90;;;;;;5050921;28;20045;-44
2022/10/30 04:22:49;;;;;;;22.98;10.88;;;13.20;99.90;;;;;;5024752;28;20103;-47
2022/10/30 04:25:15;;;;;;;25.60;13.52;;;13.20;99.90;;;;;;5048530;28;20136;-42
2022/10/30 04:27:42;;;;;;;24.60;12.75;;;13.10;99.90;;;;;;5031766;28;20095;-44
2022/10/30 04:30:10;;;;;;;33.47;13.88;;;13.10;99.90;;;;;;5048487;28;20132;-45
2022/10/30 04:32:37;;;;;;;28.92;13.30;;;13.00;99.90;;;;;;5048638;28;20128;-44
2022/10/30 04:35:04;;;;;;;28.80;13.00;;;13.10;99.90;;;;;;5028265;28;20059;-45
2022/10/30 04:37:31;;;;;;;27.10;12.77;;;13.00;99.90;;;;;;5048640;28;20110;-42
2022/10/30 04:39:59;;;;;;;26.38;13.02;;;13.00;99.90;;;;;;5032101;28;20143;-43
2022/10/30 04:42:26;;;;;;;28.48;14.75;;;12.90;99.90;;;;;;5048180;28;20048;-45
2022/10/30 04:44:53;;;;;;;31.88;13.75;;;13.00;99.90;;;;;;5031226;28;20125;-42
2022/10/30 04:47:19;;;;;;;24.70;13.18;;;12.90;99.90;;;;;;5047438;28;20041;-43
2022/10/30 04:49:46;;;;;;;29.73;14.38;;;12.90;99.90;;;;;;5031524;28;20143;-44
2022/10/30 04:52:13;;;;;;;27.05;13.48;;;12.80;99.90;;;;;;5050248;28;20063;-46
2022/10/30 04:54:40;;;;;;;28.83;12.52;;;12.80;99.90;;;;;;5023579;28;20079;-45
2022/10/30 04:57:08;;;;;;;29.52;11.98;;;12.80;99.90;;;;;;5049490;28;20123;-44
2022/10/30 04:59:34;;;;;;;23.73;13.00;;;12.80;99.90;;;;;;5046998;28;20056;-43
2022/10/30 05:02:01;;;;;;;26.95;13.00;;;12.80;99.90;;;;;;5027911;28;20144;-47
2022/10/30 05:04:28;;;;;;;24.98;13.40;;;12.80;99.90;;;;;;5048656;28;20096;-44
2022/10/30 05:06:55;;;;;;;27.73;12.52;;;12.80;99.90;;;;;;5047737;28;20132;-44
2022/10/30 05:09:21;;;;;;;29.55;13.18;;;12.80;99.90;;;;;;5030619;28;20091;-47
2022/10/30 05:11:48;;;;;;;30.92;13.93;;;12.80;99.90;;;;;;5029589;28;20128;-43
2022/10/30 05:14:16;;;;;;;24.10;12.68;;;12.70;99.90;;;;;;5046885;28;20160;-43
2022/10/30 05:16:43;;;;;;;25.38;13.30;;;12.80;99.90;;;;;;5049085;28;20073;-43
2022/10/30 05:19:10;;;;;;;33.85;13.68;;;12.70;99.90;;;;;;5049225;28;20545;-45
2022/10/30 05:21:36;;;;;;;29.77;14.23;;;12.70;99.90;;;;;;5048047;28;20457;-42
2022/10/30 05:24:04;;;;;;;32.25;13.38;;;12.60;99.90;;;;;;5048041;28;20118;-44
2022/10/30 05:26:30;;;;;;;28.73;14.25;;;12.70;99.90;;;;;;5028073;28;20076;-45
2022/10/30 05:28:57;;;;;;;38.58;13.65;;;12.70;99.90;;;;;;5048308;28;20052;-43
2022/10/30 05:31:25;;;;;;;30.58;14.23;;;12.70;99.90;;;;;;5045837;28;20423;-42
2022/10/30 05:33:52;;;;;;;36.97;14.40;;;12.70;99.90;;;;;;5025465;28;20102;-42
2022/10/30 05:36:19;;;;;;;29.67;14.00;;;12.70;99.90;;;;;;5043054;28;20144;-44
2022/10/30 05:38:46;;;;;;;27.70;14.20;;;12.60;99.90;;;;;;5045852;28;20126;-43
2022/10/30 05:41:13;;;;;;;33.47;14.75;;;12.60;99.90;;;;;;5026017;28;20839;-42
2022/10/30 05:43:39;;;;;;;33.70;13.60;;;12.60;99.90;;;;;;5031152;28;20572;-41
2022/10/30 05:46:06;;;;;;;34.25;14.32;;;12.70;99.90;;;;;;5047757;28;20139;-46
2022/10/30 05:48:34;;;;;;;29.08;15.15;;;12.60;99.90;;;;;;5028225;28;20072;-43
2022/10/30 05:51:03;;;;;;;33.28;14.55;;;12.60;99.90;;;;;;5024024;28;20572;-42
2022/10/30 05:53:29;;;;;;;34.38;14.77;;;12.60;99.90;;;;;;5046858;28;20072;-46
2022/10/30 05:55:56;;;;;;;31.88;14.70;;;12.60;99.90;;;;;;5030853;28;20132;-43
2022/10/30 05:58:23;;;;;;;29.63;14.40;;;12.60;99.90;;;;;;5030686;28;20053;-43
2022/10/30 06:00:50;;;;;;;39.00;15.75;;;12.60;99.90;;;;;;5023996;28;20505;-43
2022/10/30 06:03:17;;;;;;;29.77;13.88;;;12.60;99.90;;;;;;5043426;28;20134;-43
2022/10/30 06:05:46;;;;;;;25.80;13.70;;;12.60;99.90;;;;;;5046118;28;20436;-43
2022/10/30 06:08:15;;;;;;;35.30;15.73;;;12.60;99.90;;;;;;5045642;28;20055;-42
2022/10/30 06:10:41;;;;;;;30.73;15.38;;;12.60;99.90;;;;;;5028732;28;20128;-45
2022/10/30 06:13:09;;;;;;;27.02;14.02;;;12.50;99.90;;;;;;5019014;28;20087;-46
2022/10/30 06:15:36;;;;;;;28.98;14.15;;;12.50;99.90;;;;;;5045742;28;20485;-42
2022/10/30 06:18:03;;;;;;;26.23;13.75;;;12.50;99.90;;;;;;5047155;28;20136;-42
2022/10/30 06:20:30;;;;;;;29.48;14.05;;;12.60;99.90;;;;;;5046459;28;20102;-44
2022/10/30 06:22:59;;;;;;;21.70;11.95;;;12.50;99.90;;;;;;5045659;28;20509;-44
2022/10/30 06:25:26;;;;;;;31.33;13.23;;;12.50;99.90;;;;;;5024684;28;20124;-43
2022/10/30 06:27:52;;;;;;;29.80;14.50;;;12.50;99.90;;;;;;5025427;28;20433;-45
2022/10/30 06:30:20;;;;;;;33.80;14.73;;;12.50;99.90;;;;;;5027390;28;20136;-42
2022/10/30 06:32:47;;;;;;;37.08;15.80;;;12.50;99.90;;;;;;5046883;28;20115;-45
2022/10/30 06:35:13;;;;;;;39.08;15.93;;;12.40;99.90;;;;;;5028608;28;20130;-42
2022/10/30 06:37:45;;;;;;;35.50;14.93;;;12.40;99.90;;;;;;5028553;28;20091;-44
2022/10/30 06:40:13;;;;;;;;;;;12.40;99.90;;;;;;5047690;28;20084;-43
2022/10/30 06:42:44;;;;;;;29.08;13.15;;;12.40;99.90;;;;;;5028787;28;20288;-44
2022/10/30 06:45:11;;;;;;;33.47;13.55;;;12.40;99.90;;;;;;5045283;28;20386;-43
2022/10/30 06:47:38;;;;;;;23.83;11.98;;;12.40;99.90;;;;;;5045879;28;20560;-43
2022/10/30 06:50:05;;;;;;;28.92;13.00;;;12.40;99.90;;;;;;5024109;28;21184;-42
2022/10/30 06:52:32;;;;;;;32.28;14.68;;;12.30;99.90;;;;;;5027452;28;20171;-44
2022/10/30 06:54:59;;;;;;;28.95;14.48;;;12.30;99.90;;;;;;5026245;28;20135;-45
2022/10/30 06:57:27;;;;;;;35.70;15.43;;;12.30;99.90;;;;;;5048427;28;20049;-46
2022/10/30 06:59:53;;;;;;;29.88;14.50;;;12.30;99.90;;;;;;5046529;28;20048;-42
2022/10/30 07:02:20;;;;;;;36.15;14.90;;;12.30;99.90;;;;;;5018900;28;20095;-44
2022/10/30 07:04:47;;;;;;;30.58;15.25;;;12.40;99.90;;;;;;5044448;28;20045;-46
2022/10/30 07:07:14;;;;;;;38.50;16.45;;;12.40;99.90;;;;;;5027502;28;20056;-45
2022/10/30 07:09:40;;;;;;;32.70;16.25;;;12.40;99.90;;;;;;5026896;28;20083;-45
2022/10/30 07:12:08;;;;;;;35.33;16.58;;;12.40;99.90;;;;;;5026493;28;20053;-44
2022/10/30 07:14:36;;;;;;;33.70;14.63;;;12.40;99.90;;;;;;5027477;28;20102;-44
2022/10/30 07:17:02;;;;;;;28.65;15.25;;;12.40;99.90;;;;;;5042484;28;20436;-46
2022/10/30 07:19:29;;;;;;;33.88;16.30;;;12.40;99.90;;;;;;5052178;28;20420;-44
2022/10/30 07:21:56;;;;;;;38.90;16.63;;;12.40;99.90;;;;;;5026320;28;20096;-43
2022/10/30 07:24:23;;;;;;;34.22;16.35;;;12.40;99.90;;;;;;5029036;28;20182;-43
2022/10/30 07:26:50;;;;;;;34.55;16.83;;;12.50;99.90;;;;;;5049032;28;20094;-46
2022/10/30 07:29:16;;;;;;;31.98;16.52;;;12.50;99.90;;;;;;5023022;28;20140;-41
2022/10/30 07:31:46;;;;;;;38.35;17.35;;;12.50;99.90;;;;;;5031220;28;20895;-42
2022/10/30 07:34:12;;;;;;;33.92;16.63;;;12.60;99.90;;;;;;5015947;28;20049;-42
2022/10/30 07:36:39;;;;;;;35.63;17.88;;;12.60;99.90;;;;;;5050056;28;20118;-43
2022/10/30 07:39:06;;;;;;;37.60;17.98;;;12.70;99.90;;;;;;5032898;28;20140;-44
2022/10/30 07:41:33;;;;;;;36.05;16.55;;;12.70;99.90;;;;;;5025655;28;20076;-45
2022/10/30 07:43:59;;;;;;;29.80;17.73;;;12.80;99.90;;;;;;5030514;28;20537;-44
2022/10/30 07:46:26;;;;;;;33.05;16.65;;;12.80;99.90;;;;;;5048680;28;20477;-42
2022/10/30 07:48:55;;;;;;;32.60;17.23;;;12.90;99.90;;;;;;5050658;28;20041;-43
2022/10/30 07:51:22;;;;;;;33.20;18.15;;;12.90;99.90;;;;;;5019046;28;20052;-40
2022/10/30 07:53:49;;;;;;;29.90;18.10;;;13.00;99.90;;;;;;5030543;28;20049;-43
2022/10/30 07:56:15;;;;;;;50.10;19.45;;;13.00;99.90;;;;;;5050119;28;20129;-43
2022/10/30 07:58:42;;;;;;;31.95;17.73;;;13.10;99.90;;;;;;5037017;28;20040;-42
2022/10/30 08:01:09;;;;;;;36.90;17.70;;;13.10;99.90;;;;;;5052972;28;20084;-43
2022/10/30 08:03:36;;;;;;;36.15;17.98;;;13.20;99.90;;;;;;5047869;28;20045;-44
2022/10/30 08:06:04;;;;;;;43.60;17.98;;;13.20;99.90;;;;;;5051057;28;20102;-42
2022/10/30 08:08:31;;;;;;;34.60;18.33;;;13.30;99.90;;;;;;5031104;28;20053;-43
2022/10/30 08:10:58;;;;;;;39.90;19.60;;;13.30;99.90;;;;;;5032344;28;20385;-44
2022/10/30 08:13:24;;;;;;;36.78;18.25;;;13.40;99.90;;;;;;5047314;28;20132;-44
2022/10/30 08:15:51;;;;;;;41.13;19.10;;;13.40;99.90;;;;;;5025356;28;20119;-42
2022/10/30 08:18:18;;;;;;;34.78;19.05;;;13.50;99.90;;;;;;5035075;28;20126;-43
2022/10/30 08:20:49;;;;;;;38.33;19.70;;;13.60;99.90;;;;;;5049674;28;20136;-41
2022/10/30 08:23:18;;;;;;;36.07;18.53;;;13.70;99.90;;;;;;5048189;28;20049;-44
2022/10/30 08:25:45;;;;;;;36.30;19.25;;;13.80;99.90;;;;;;5022642;28;20073;-41
2022/10/30 08:28:13;;;;;;;32.63;18.98;;;13.90;99.90;;;;;;5047948;28;20056;-46
2022/10/30 08:30:40;;;;;;;33.22;18.73;;;13.90;99.90;;;;;;5047615;28;20076;-42
2022/10/30 08:33:07;;;;;;;33.22;18.95;;;14.10;99.90;;;;;;5031759;28;20103;-45
2022/10/30 08:35:34;;;;;;;31.27;19.10;;;14.10;99.90;;;;;;5048481;28;20548;-44
2022/10/30 08:38:01;;;;;;;40.72;18.48;;;14.20;99.90;;;;;;5049101;28;20072;-43
2022/10/30 08:40:29;;;;;;;34.60;17.17;;;14.30;99.90;;;;;;5028424;28;20063;-42
2022/10/30 08:42:57;;;;;;;37.97;18.67;;;14.40;99.90;;;;;;5029653;28;20089;-43
2022/10/30 08:45:24;;;;;;;30.83;18.77;;;14.50;99.90;;;;;;5047814;28;20103;-45
2022/10/30 08:47:56;;;;;;;40.83;17.73;;;14.60;99.90;;;;;;5049724;28;20501;-41
2022/10/30 08:50:23;;;;;;;31.20;19.35;;;14.70;99.90;;;;;;5045767;28;20048;-44
2022/10/30 08:52:50;;;;;;;31.95;17.90;;;14.80;99.90;;;;;;5043938;28;20041;-42
2022/10/30 08:55:17;;;;;;;35.35;17.95;;;14.90;99.90;;;;;;5047408;28;20161;-41
2022/10/30 08:57:45;;;;;;;37.25;18.00;;;15.10;99.90;;;;;;5038682;28;20128;-43
2022/10/30 09:00:12;;;;;;;35.22;18.02;;;15.10;99.90;;;;;;5031647;28;20056;-42
2022/10/30 09:02:39;;;;;;;29.17;18.00;;;15.10;99.90;;;;;;5033251;28;20114;-44
2022/10/30 09:05:06;;;;;;;30.05;18.23;;;15.20;99.90;;;;;;5027910;28;20053;-44
2022/10/30 09:07:33;;;;;;;35.63;17.85;;;15.30;99.90;;;;;;5044995;28;20331;-42
2022/10/30 09:10:00;;;;;;;28.98;17.70;;;15.40;99.90;;;;;;5046435;28;20142;-46
2022/10/30 09:12:26;;;;;;;29.95;16.52;;;15.50;99.90;;;;;;5043678;28;20123;-43
2022/10/30 09:14:55;;;;;;;35.97;18.00;;;15.60;99.90;;;;;;5027426;28;20065;-43
2022/10/30 09:17:21;;;;;;;26.70;16.10;;;15.70;99.90;;;;;;5024829;28;20124;-44
2022/10/30 09:19:48;;;;;;;36.47;17.15;;;15.80;99.90;;;;;;5027202;28;20136;-44
2022/10/30 09:22:15;;;;;;;33.78;18.10;;;15.80;99.90;;;;;;5028184;28;20057;-42
2022/10/30 09:24:42;;;;;;;38.15;17.52;;;15.90;99.90;;;;;;5041649;28;20072;-44
2022/10/30 09:27:08;;;;;;;28.83;16.38;;;16.00;99.90;;;;;;5043574;28;20461;-42
2022/10/30 09:29:35;;;;;;;35.85;16.90;;;16.10;99.90;;;;;;5022530;28;20152;-44
2022/10/30 09:32:07;;;;;;;33.88;17.05;;;16.30;99.90;;;;;;5027908;28;20087;-44
2022/10/30 09:34:34;;;;;;;36.72;16.95;;;16.30;99.90;;;;;;5044876;28;20519;-42
2022/10/30 09:37:01;;;;;;;33.50;16.45;;;16.40;99.90;;;;;;5027443;28;20072;-43
2022/10/30 09:39:28;;;;;;;29.40;16.05;;;16.50;99.90;;;;;;5042772;28;20124;-42
2022/10/30 09:42:20;;;;;;;38.05;17.52;;;16.60;99.90;;;;;;5049247;28;20053;-43
2022/10/30 09:44:51;;;;;;;35.78;16.80;;;16.70;99.90;;;;;;5039699;28;20048;-41
2022/10/30 09:47:24;;;;;;;31.85;16.77;;;16.80;99.90;;;;;;5043885;28;20128;-43
2022/10/30 09:50:04;;;;;;;41.05;16.95;;;17.00;99.90;;;;;;5026411;28;20052;-42
2022/10/30 09:52:32;;;;;;;32.63;16.15;;;17.10;99.90;;;;;;5046878;28;20638;-42
2022/10/30 09:55:19;;;;;;;33.13;15.57;;;17.20;99.90;;;;;;5023825;28;20145;-43
2022/10/30 09:57:50;;;;;;;35.70;16.13;;;17.30;99.90;;;;;;5042991;28;20503;-41
2022/10/30 10:00:17;;;;;;;28.35;15.10;;;17.40;99.90;;;;;;5045332;28;20528;-41
2022/10/30 10:02:57;;;;;;;30.77;15.20;;;17.50;99.90;;;;;;5026612;28;20132;-42
2022/10/30 10:05:26;;;;;;;35.67;16.42;;;17.60;99.90;;;;;;5015291;28;20051;-42
2022/10/30 10:07:54;;;;;;;34.78;15.27;;;17.60;99.90;;;;;;5028475;28;20080;-43
2022/10/30 10:10:25;;;;;;;33.45;15.55;;;17.80;99.90;;;;;;5052235;28;20123;-44
2022/10/30 10:12:52;;;;;;;31.63;15.05;;;17.90;99.90;;;;;;5033007;28;20088;-43
2022/10/30 10:15:32;;;;;;;27.10;14.32;;;18.00;99.90;;;;;;5033146;28;20041;-43
2022/10/30 10:18:00;;;;;;;30.75;14.20;;;18.10;99.90;;;;;;5052749;28;20127;-41
2022/10/30 10:20:30;;;;;;;29.98;14.68;;;18.20;99.90;;;;;;5034680;28;20555;-42
2022/10/30 10:22:57;;;;;;;30.48;14.27;;;18.30;99.90;;;;;;5052076;28;20127;-41
2022/10/30 10:25:24;;;;;;;30.10;14.52;;;18.30;99.90;;;;;;5035442;28;20103;-42
2022/10/30 10:27:59;;;;;;;26.02;14.15;;;18.40;99.90;;;;;;5049635;28;20469;-41
2022/10/30 10:30:28;;;;;;;29.90;13.40;;;18.50;99.90;;;;;;5015927;28;20123;-44
2022/10/30 10:33:08;;;;;;;33.83;13.35;;;18.60;99.90;;;;;;5023692;28;20076;-42
2022/10/30 10:35:46;;;;;;;26.40;13.27;;;18.70;99.90;;;;;;5051685;28;20049;-44
2022/10/30 10:38:17;;;;;;;26.15;12.30;;;18.80;99.90;;;;;;5034353;28;20107;-41
2022/10/30 10:40:50;;;;;;;33.25;13.45;;;18.90;99.90;;;;;;5035308;28;20132;-41
2022/10/30 10:43:22;;;;;;;27.90;12.50;;;18.90;99.90;;;;;;5051066;28;20132;-42
2022/10/30 10:45:49;;;;;;;;;;;18.90;99.90;;;;;;5031412;28;20053;-42
2022/10/30 10:48:34;;;;;;;35.92;12.75;;;19.00;99.90;;;;;;5033609;28;19928;-42
2022/10/30 10:51:02;;;;;;;30.15;11.80;;;19.00;99.90;;;;;;5032955;28;20084;-41
2022/10/30 10:53:30;;;;;;;26.83;12.55;;;19.00;99.90;;;;;;5014447;28;20049;-41
2022/10/30 10:55:58;;;;;;;31.38;12.30;;;19.10;99.90;;;;;;5045135;28;20045;-42
2022/10/30 10:58:28;;;;;;;22.55;12.52;;;19.10;99.90;;;;;;5034967;28;20115;-41
2022/10/30 11:00:55;;;;;;;27.10;13.18;;;19.10;99.90;;;;;;5034930;28;20136;-41
2022/10/30 11:03:24;;;;;;;25.48;11.40;;;19.10;99.90;;;;;;5033361;28;20110;-40
2022/10/30 11:05:53;;;;;;;25.40;12.48;;;19.20;99.90;;;;;;5050410;28;20085;-41
2022/10/30 11:08:23;;;;;;;33.95;12.88;;;19.20;99.90;;;;;;5051049;28;20128;-43
2022/10/30 11:10:51;;;;;;;29.25;13.23;;;19.30;99.90;;;;;;5034675;28;20476;-41
2022/10/30 11:13:18;;;;;;;30.52;13.35;;;19.30;99.90;;;;;;5033783;28;20524;-41
2022/10/30 11:15:50;;;;;;;23.92;12.23;;;19.30;99.90;;;;;;5017448;28;20080;-41
2022/10/30 11:18:17;;;;;;;29.60;12.40;;;19.30;99.90;;;;;;5032507;28;20061;-41
2022/10/30 11:20:47;;;;;;;26.42;11.45;;;19.40;99.90;;;;;;5014930;28;20148;-42
2022/10/30 11:23:33;;;;;;;27.20;12.63;;;19.40;99.90;;;;;;5043164;28;20428;-42
2022/10/30 11:26:01;;;;;;;34.85;13.70;;;19.40;99.90;;;;;;5051543;28;20057;-40
2022/10/30 11:28:40;;;;;;;26.75;12.38;;;19.40;99.90;;;;;;5034728;28;20100;-41
2022/10/30 11:31:17;;;;;;;30.70;13.30;;;19.40;99.90;;;;;;5032696;28;20060;-42
2022/10/30 11:33:45;;;;;;;29.92;12.95;;;19.40;99.90;;;;;;5034385;28;20057;-40
2022/10/30 11:36:14;;;;;;;22.27;13.75;;;19.40;99.90;;;;;;5034399;28;20501;-42
2022/10/30 11:38:42;;;;;;;29.38;13.05;;;19.40;99.90;;;;;;5034660;28;20145;-41
2022/10/30 11:41:10;;;;;;;28.20;13.23;;;19.40;99.90;;;;;;5051892;28;20051;-41
2022/10/30 11:43:37;;;;;;;25.30;13.13;;;19.50;99.90;;;;;;5032766;28;20055;-42
2022/10/30 11:46:08;;;;;;;32.53;14.75;;;19.60;99.90;;;;;;5052188;28;20457;-42
2022/10/30 11:48:35;;;;;;;26.67;14.48;;;19.70;99.90;;;;;;5052211;28;20064;-40
2022/10/30 11:51:02;;;;;;;30.38;13.80;;;19.80;99.90;;;;;;5048844;28;20509;-43
2022/10/30 11:53:31;;;;;;;32.38;14.82;;;19.90;99.90;;;;;;5048816;28;20051;-42
2022/10/30 11:55:59;;;;;;;35.13;14.00;;;19.90;99.90;;;;;;5033336;28;20538;-42
2022/10/30 11:58:29;;;;;;;30.27;13.80;;;20.00;99.90;;;;;;5051514;28;20049;-42
2022/10/30 12:01:00;;;;;;;29.65;13.80;;;20.00;99.90;;;;;;5051002;28;20084;-43
2022/10/30 12:03:28;;;;;;;28.58;13.18;;;20.00;99.90;;;;;;5051093;28;20513;-42
2022/10/30 12:06:07;;;;;;;32.45;12.77;;;20.00;99.90;;;;;;5055578;28;20140;-42
2022/10/30 12:08:34;;;;;;;25.88;12.27;;;20.00;99.90;;;;;;5055631;28;20049;-42
2022/10/30 12:11:04;;;;;;;28.40;12.65;;;19.90;99.90;;;;;;5054588;28;20096;-41
2022/10/30 12:13:36;;;;;;;30.27;13.02;;;19.90;99.90;;;;;;5038015;28;20147;-42
2022/10/30 12:16:14;;;;;;;25.73;12.75;;;20.00;99.90;;;;;;5035992;28;20144;-42
2022/10/30 12:18:41;;;;;;;31.60;11.77;;;20.00;99.90;;;;;;5053887;28;20044;-42
2022/10/30 12:21:08;;;;;;;31.88;12.95;;;19.90;99.90;;;;;;5032493;28;20052;-42
2022/10/30 12:23:34;;;;;;;23.02;12.45;;;19.90;99.90;;;;;;5035038;28;20405;-42
2022/10/30 12:26:10;;;;;;;23.65;12.02;;;20.00;99.90;;;;;;5035579;28;20092;-41
2022/10/30 12:28:36;;;;;;;24.67;11.63;;;20.00;99.90;;;;;;5035628;28;20096;-41
2022/10/30 12:31:05;;;;;;;23.70;11.63;;;19.90;99.90;;;;;;5026109;28;20059;-41
2022/10/30 12:33:34;;;;;;;29.33;12.18;;;19.90;99.90;;;;;;5053493;28;20053;-42